Time;durP1;ratioP1;P1;durP2;ratioP2;P2;SDS_P1;SDS_P2;PMS_P1;PMS_P2;Temp;Humidity;BMP_temperature;BMP_pressure;BME280_temperature;BME280_humidity;BME280_pressure;Samples;Min_cycle;Max_cycle;Signal;HPM_P1;HPM_P2
2022/10/13 00:01:12;;;;;;;;;;;;;;;20.69;67.82;97759.16;599964;236;64826;-69
2022/10/13 00:03:40;;;;;;;;;;;;;;;20.69;67.65;97761.83;600001;236;66018;-69
2022/10/13 00:06:09;;;;;;;;;;;;;;;20.68;67.62;97765.53;599999;236;65252;-69
2022/10/13 00:08:37;;;;;;;;;;;;;;;20.68;67.50;97763.69;599940;236;67095;-69
2022/10/13 00:11:12;;;;;;;;;;;;;;;20.69;67.71;97767.16;599944;236;63051;-69
2022/10/13 00:13:40;;;;;;;;;;;;;;;20.68;67.62;97763.69;599961;236;67189;-71
2022/10/13 00:16:09;;;;;;;;;;;;;;;20.68;67.54;97766.37;599988;236;66724;-71
2022/10/13 00:18:36;;;;;;;;;;;;;;;20.68;67.77;97765.53;599998;236;64885;-68
2022/10/13 00:21:11;;;;;;;;;;;;;;;20.68;67.97;97768.20;599963;236;66968;-68
2022/10/13 00:23:39;;;;;;;;;;;;;;;20.67;67.50;97764.73;599908;236;65193;-68
2022/10/13 00:26:08;;;;;;;;;;;;;;;20.66;67.53;97760.46;599941;236;65677;-68
2022/10/13 00:28:36;;;;;;;;;;;;;;;20.67;67.48;97758.59;599953;236;67027;-68
2022/10/13 00:31:04;;;;;;;;;;;;;;;20.67;67.57;97758.59;599980;236;67006;-68
2022/10/13 00:33:31;;;;;;;;;;;;;;;20.67;67.62;97753.25;599995;236;65069;-70
2022/10/13 00:35:59;;;;;;;;;;;;;;;20.66;67.48;97749.78;599895;234;67303;-70
2022/10/13 00:38:26;;;;;;;;;;;;;;;20.67;67.50;97756.72;599907;236;68752;-71
2022/10/13 00:40:55;;;;;;;;;;;;;;;20.66;67.61;97760.46;599966;236;62649;-70
2022/10/13 00:43:23;;;;;;;;;;;;;;;20.67;67.57;97753.25;599962;236;66760;-68
2022/10/13 00:45:52;;;;;;;;;;;;;;;20.66;67.74;97751.64;600003;236;66942;-68
2022/10/13 00:48:23;;;;;;;;;;;;;;;20.66;67.52;97755.12;599939;236;64869;-68
2022/10/13 00:50:52;;;;;;;;;;;;;;;20.65;67.51;97755.36;599897;236;67941;-68
2022/10/13 00:53:21;;;;;;;;;;;;;;;20.66;67.56;97751.64;599954;236;67004;-68
2022/10/13 00:55:50;;;;;;;;;;;;;;;20.66;67.49;97746.30;599956;236;63005;-68
2022/10/13 00:58:19;;;;;;;;;;;;;;;20.65;67.63;97750.02;600009;236;67245;-70
2022/10/13 01:00:48;;;;;;;;;;;;;;;20.66;67.70;97748.97;599999;236;67745;-71
2022/10/13 01:03:17;;;;;;;;;;;;;;;20.64;67.53;97751.08;599981;236;65840;-70
2022/10/13 01:05:45;;;;;;;;;;;;;;;20.64;67.56;97748.41;599993;236;67084;-70
2022/10/13 01:08:13;;;;;;;;;;;;;;;20.64;67.58;97743.88;599995;236;65033;-70
2022/10/13 01:10:55;;;;;;;;;;;;;;;20.64;67.46;97748.41;600056;234;64993;-70
2022/10/13 01:13:43;;;;;;;;;;;;;;;20.63;67.58;97749.48;600020;236;67052;-71
2022/10/13 01:16:12;;;;;;;;;;;;;;;20.64;67.49;97746.55;600019;236;66922;-70
2022/10/13 01:18:57;;;;;;;;;;;;;;;20.63;67.79;97746.81;599919;236;62837;-70
2022/10/13 01:21:26;;;;;;;;;;;;;;;20.63;67.51;97744.14;599981;236;67167;-69
2022/10/13 01:23:58;;;;;;;;;;;;;;;20.61;67.33;97742.51;599929;234;67479;-69
2022/10/13 01:26:46;;;;;;;;;;;;;;;20.61;67.44;97736.36;599980;236;63663;-69
2022/10/13 01:29:24;;;;;;;;;;;;;;;20.62;67.52;97740.64;600028;236;67438;-70
2022/10/13 01:31:53;;;;;;;;;;;;;;;20.60;67.47;97740.91;600073;236;64301;-70
2022/10/13 01:34:22;;;;;;;;;;;;;;;20.60;67.56;97735.56;599978;236;65117;-70
2022/10/13 01:36:51;;;;;;;;;;;;;;;20.60;67.48;97738.23;597553;236;64429;-67
2022/10/13 01:39:27;;;;;;;;;;;;;;;20.61;67.90;97736.36;594921;238;64845;-67
2022/10/13 01:41:55;;;;;;;;;;;;;;;20.60;67.83;97737.43;595212;238;64982;-70
2022/10/13 01:44:24;;;;;;;;;;;;;;;20.59;67.63;97730.45;595192;237;66798;-70
2022/10/13 01:46:54;;;;;;;;;;;;;;;20.59;67.63;97730.45;595027;238;46449;-70
2022/10/13 01:49:23;;;;;;;;;;;;;;;20.60;67.44;97726.75;595193;238;64860;-70
2022/10/13 01:51:51;;;;;;;;;;;;;;;20.60;67.64;97721.41;595163;236;64578;-70
2022/10/13 01:54:19;;;;;;;;;;;;;;;20.59;67.37;97720.58;595218;238;64813;-70
2022/10/13 01:56:48;;;;;;;;;;;;;;;20.58;67.53;97713.64;595209;238;62743;-70
2022/10/13 01:59:15;;;;;;;;;;;;;;;20.59;67.54;97719.78;594618;238;64634;-70
2022/10/13 02:01:52;;;;;;;;;;;;;;;20.58;67.70;97718.97;595210;238;43740;-70
2022/10/13 02:04:22;;;;;;;;;;;;;;;20.58;67.68;97712.84;595169;238;65479;-70
2022/10/13 02:07:03;;;;;;;;;;;;;;;20.59;67.70;97717.11;595159;237;67272;-70
2022/10/13 02:09:32;;;;;;;;;;;;;;;20.57;67.57;97709.36;595200;238;67007;-69
2022/10/13 02:12:01;;;;;;;;;;;;;;;20.57;67.34;97706.70;595159;237;62785;-67
2022/10/13 02:14:32;;;;;;;;;;;;;;;20.57;67.47;97712.03;595148;238;45587;-70
2022/10/13 02:17:01;;;;;;;;;;;;;;;20.57;67.55;97716.55;595190;238;67278;-70
2022/10/13 02:19:29;;;;;;;;;;;;;;;20.57;67.73;97709.36;595213;237;62782;-70
2022/10/13 02:21:57;;;;;;;;;;;;;;;20.56;67.67;97699.72;595196;238;67478;-70
2022/10/13 02:24:25;;;;;;;;;;;;;;;20.56;67.41;97699.72;595166;238;67275;-69
2022/10/13 02:26:53;;;;;;;;;;;;;;;20.56;67.64;97697.05;595214;238;65232;-70
2022/10/13 02:29:20;;;;;;;;;;;;;;;20.57;67.99;97700.52;595188;238;66962;-70
2022/10/13 02:31:48;;;;;;;;;;;;;;;20.56;67.69;97706.93;595206;238;67035;-70
2022/10/13 02:34:16;;;;;;;;;;;;;;;20.56;67.40;97693.58;595185;238;63632;-70
2022/10/13 02:36:45;;;;;;;;;;;;;;;20.55;67.44;97692.78;597299;236;45849;-69
2022/10/13 02:39:12;;;;;;;;;;;;;;;20.55;67.68;97690.11;599985;234;64823;-69
2022/10/13 02:41:40;;;;;;;;;;;;;;;20.56;67.68;97698.92;600032;236;62724;-69
2022/10/13 02:44:07;;;;;;;;;;;;;;;20.55;67.57;97692.78;600033;236;64756;-70
2022/10/13 02:46:36;;;;;;;;;;;;;;;20.55;67.53;97690.11;599906;236;48668;-70
2022/10/13 02:49:04;;;;;;;;;;;;;;;20.55;68.16;97692.78;600031;236;62813;-70
2022/10/13 02:51:31;;;;;;;;;;;;;;;20.54;67.79;97680.50;599979;236;64868;-70
2022/10/13 02:53:59;;;;;;;;;;;;;;;20.54;67.74;97685.00;600012;236;65108;-70
2022/10/13 02:56:26;;;;;;;;;;;;;;;20.54;67.45;97691.17;600016;236;62647;-70
2022/10/13 02:58:54;;;;;;;;;;;;;;;20.55;67.51;97689.30;600047;236;64874;-70
2022/10/13 03:01:23;;;;;;;;;;;;;;;20.54;67.76;97695.69;599947;236;66713;-70
2022/10/13 03:03:50;;;;;;;;;;;;;;;20.54;67.33;97685.00;600023;236;64848;-70
2022/10/13 03:06:18;;;;;;;;;;;;;;;20.54;67.44;97693.84;599986;236;66722;-70
2022/10/13 03:08:45;;;;;;;;;;;;;;;20.54;67.49;97687.67;600037;236;66866;-70
2022/10/13 03:11:13;;;;;;;;;;;;;;;20.54;67.80;97685.84;600030;236;64876;-68
2022/10/13 03:13:40;;;;;;;;;;;;;;;20.53;67.30;97681.53;600025;236;66843;-68
2022/10/13 03:16:08;;;;;;;;;;;;;;;20.54;67.59;97687.67;600017;236;66970;-68
2022/10/13 03:18:35;;;;;;;;;;;;;;;20.53;67.37;97684.20;599972;236;65099;-68
2022/10/13 03:21:05;;;;;;;;;;;;;;;20.52;67.45;97687.91;600033;236;67265;-70
2022/10/13 03:23:34;;;;;;;;;;;;;;;20.53;67.33;97684.20;600042;236;67059;-70
2022/10/13 03:26:01;;;;;;;;;;;;;;;20.52;67.54;97682.58;600003;236;62747;-70
2022/10/13 03:28:29;;;;;;;;;;;;;;;20.53;67.53;97681.53;600006;236;67069;-70
2022/10/13 03:31:02;;;;;;;;;;;;;;;20.53;67.71;97684.20;600032;236;67205;-70
2022/10/13 03:33:29;;;;;;;;;;;;;;;20.52;67.91;97682.58;599816;236;64938;-70
2022/10/13 03:36:00;;;;;;;;;;;;;;;20.52;67.41;97679.91;600001;234;67143;-70
2022/10/13 03:38:28;;;;;;;;;;;;;;;20.51;67.57;97675.60;600029;236;67111;-71
2022/10/13 03:40:56;;;;;;;;;;;;;;;20.51;67.65;97680.94;599999;236;65125;-70
2022/10/13 03:43:25;;;;;;;;;;;;;;;20.51;67.41;97680.94;599990;236;67789;-71
2022/10/13 03:46:01;;;;;;;;;;;;;;;20.50;67.36;97671.33;599983;236;66904;-70
2022/10/13 03:48:28;;;;;;;;;;;;;;;20.51;67.47;97674.80;599989;236;64921;-70
2022/10/13 03:50:56;;;;;;;;;;;;;;;20.50;67.48;97676.67;600009;236;67043;-70
2022/10/13 03:53:24;;;;;;;;;;;;;;;20.50;67.38;97674.00;599994;236;64719;-70
2022/10/13 03:55:53;;;;;;;;;;;;;;;20.49;67.41;97675.07;600001;235;64903;-70
2022/10/13 03:58:22;;;;;;;;;;;;;;;20.50;67.45;97668.66;599993;236;64524;-70
2022/10/13 04:00:53;;;;;;;;;;;;;;;20.50;67.86;97674.00;599991;236;44727;-70
2022/10/13 04:03:21;;;;;;;;;;;;;;;20.49;67.42;97669.73;600001;234;64945;-70
2022/10/13 04:05:48;;;;;;;;;;;;;;;20.49;67.62;97668.90;599979;236;67235;-70
2022/10/13 04:08:17;;;;;;;;;;;;;;;20.49;67.45;97658.22;599980;236;67962;-70
2022/10/13 04:10:44;;;;;;;;;;;;;;;20.49;67.33;97659.05;599945;234;65743;-70
2022/10/13 04:13:12;;;;;;;;;;;;;;;20.49;67.29;97661.72;600006;236;67243;-70
2022/10/13 04:15:41;;;;;;;;;;;;;;;20.49;67.24;97659.05;599992;234;64626;-69
2022/10/13 04:18:08;;;;;;;;;;;;;;;20.50;67.16;97668.66;599987;236;65328;-70
2022/10/13 04:20:37;;;;;;;;;;;;;;;20.50;67.27;97665.19;599987;236;67346;-69
2022/10/13 04:23:04;;;;;;;;;;;;;;;20.50;67.39;97662.52;599861;234;65053;-69
2022/10/13 04:25:33;;;;;;;;;;;;;;;20.50;67.29;97674.00;599997;234;65155;-69
2022/10/13 04:28:01;;;;;;;;;;;;;;;20.51;67.11;97664.13;600007;236;66726;-70
2022/10/13 04:30:29;;;;;;;;;;;;;;;20.51;67.15;97670.27;599985;236;67256;-69
2022/10/13 04:32:56;;;;;;;;;;;;;;;20.52;67.11;97666.55;600014;236;64890;-69
2022/10/13 04:35:24;;;;;;;;;;;;;;;20.53;67.09;97670.02;600010;236;67260;-69
2022/10/13 04:37:51;;;;;;;;;;;;;;;20.53;67.07;97668.19;595665;236;66935;-69
2022/10/13 04:40:19;;;;;;;;;;;;;;;20.54;67.02;97669.81;595140;238;65159;-69
2022/10/13 04:42:47;;;;;;;;;;;;;;;20.55;67.04;97670.61;595214;238;67075;-69
2022/10/13 04:45:14;;;;;;;;;;;;;;;20.55;66.99;97666.08;594595;238;66699;-69
2022/10/13 04:47:43;;;;;;;;;;;;;;;20.57;67.02;97668.48;594405;238;65656;-70
2022/10/13 04:50:10;;;;;;;;;;;;;;;20.57;66.97;97669.31;595218;238;64846;-69
2022/10/13 04:52:38;;;;;;;;;;;;;;;20.59;66.95;97671.70;594955;238;66895;-69
2022/10/13 04:55:06;;;;;;;;;;;;;;;20.60;66.94;97668.80;595199;237;64895;-70
2022/10/13 04:57:33;;;;;;;;;;;;;;;20.61;67.08;97673.07;595187;238;67101;-69
2022/10/13 05:00:01;;;;;;;;;;;;;;;20.62;66.91;97671.20;594916;238;67833;-69
2022/10/13 05:02:31;;;;;;;;;;;;;;;20.64;66.96;97673.63;587689;238;68663;-69
2022/10/13 05:04:58;;;;;;;;;;;;;;;20.66;66.97;97674.20;582771;238;68043;-70
2022/10/13 05:07:26;;;;;;;;;;;;;;;20.67;67.03;97673.12;595220;238;64867;-70
2022/10/13 05:09:53;;;;;;;;;;;;;;;20.68;67.04;97675.56;595204;237;64690;-70
2022/10/13 05:12:21;;;;;;;;;;;;;;;20.70;67.12;97677.95;595239;238;64755;-69
2022/10/13 05:14:49;;;;;;;;;;;;;;;20.72;67.31;97673.17;595249;238;66708;-70
2022/10/13 05:17:17;;;;;;;;;;;;;;;20.73;66.98;97678.25;595214;238;62911;-70
2022/10/13 05:19:45;;;;;;;;;;;;;;;20.74;66.92;97682.55;595213;238;67019;-70
2022/10/13 05:22:12;;;;;;;;;;;;;;;20.76;67.24;97676.94;595195;237;67111;-70
2022/10/13 05:24:43;;;;;;;;;;;;;;;20.78;67.27;97672.16;595279;238;46396;-70
2022/10/13 05:27:12;;;;;;;;;;;;;;;20.79;66.89;97682.60;595223;238;64887;-70
2022/10/13 05:29:40;;;;;;;;;;;;;;;20.81;66.85;97680.46;595241;238;64829;-70
2022/10/13 05:32:09;;;;;;;;;;;;;;;20.83;66.81;97678.35;595198;238;62905;-68
2022/10/13 05:34:36;;;;;;;;;;;;;;;20.84;66.78;97679.98;595113;238;64983;-68
2022/10/13 05:37:04;;;;;;;;;;;;;;;20.87;67.23;97683.18;595169;237;66687;-68
2022/10/13 05:39:33;;;;;;;;;;;;;;;20.88;66.82;97680.27;595246;238;66333;-68
2022/10/13 05:42:00;;;;;;;;;;;;;;;20.89;66.86;97687.22;595216;238;64384;-68
2022/10/13 05:44:28;;;;;;;;;;;;;;;20.92;66.74;97686.70;595219;237;66554;-68
2022/10/13 05:46:56;;;;;;;;;;;;;;;20.93;66.59;97690.20;595216;238;65120;-68
2022/10/13 05:49:24;;;;;;;;;;;;;;;20.93;66.60;97693.68;595228;238;64742;-70
2022/10/13 05:51:53;;;;;;;;;;;;;;;20.96;66.70;97693.17;595148;237;64368;-68
2022/10/13 05:54:28;;;;;;;;;;;;;;;20.98;66.66;97696.40;595280;238;47315;-68
2022/10/13 05:57:06;;;;;;;;;;;;;;;20.98;66.48;97699.07;594662;238;64525;-68
2022/10/13 05:59:34;;;;;;;;;;;;;;;21.01;66.78;97701.23;595193;238;64401;-67
2022/10/13 06:02:03;;;;;;;;;;;;;;;21.03;66.65;97712.48;595021;237;62631;-67
2022/10/13 06:04:34;;;;;;;;;;;;;;;21.03;66.46;97704.47;595155;238;64615;-69
2022/10/13 06:07:01;;;;;;;;;;;;;;;21.06;66.50;97706.63;595115;238;65000;-67
2022/10/13 06:09:30;;;;;;;;;;;;;;;21.08;66.28;97706.35;595061;237;65023;-68
2022/10/13 06:11:58;;;;;;;;;;;;;;;21.09;66.11;97704.48;597862;237;64838;-68
2022/10/13 06:14:25;;;;;;;;;;;;;;;21.10;66.32;97714.13;597651;237;64776;-69
2022/10/13 06:16:53;;;;;;;;;;;;;;;21.10;66.14;97711.45;597701;237;62642;-67
2022/10/13 06:19:20;;;;;;;;;;;;;;;21.11;66.15;97710.38;597914;237;64856;-67
2022/10/13 06:21:48;;;;;;;;;;;;;;;21.12;66.06;97710.14;597919;237;66733;-65
2022/10/13 06:24:16;;;;;;;;;;;;;;;21.15;66.04;97709.63;597890;237;65902;-67
2022/10/13 06:26:44;;;;;;;;;;;;;;;21.17;65.98;97704.84;597939;237;67336;-67
2022/10/13 06:29:11;;;;;;;;;;;;;;;21.20;65.98;97703.53;597875;237;66752;-67
2022/10/13 06:31:39;;;;;;;;;;;;;;;21.23;65.87;97694.99;596946;237;65138;-67
2022/10/13 06:34:07;;;;;;;;;;;;;;;21.25;65.78;97706.22;597748;237;67805;-71
2022/10/13 06:36:35;;;;;;;;;;;;;;;21.28;65.66;97705.73;597770;237;67996;-73
2022/10/13 06:39:02;;;;;;;;;;;;;;;21.31;65.59;97702.55;597916;237;64901;-69
2022/10/13 06:41:31;;;;;;;;;;;;;;;21.31;65.57;97699.87;590288;237;67339;-69
2022/10/13 06:43:59;;;;;;;;;;;;;;;21.35;65.63;97705.50;597949;237;64719;-66
2022/10/13 06:46:27;;;;;;;;;;;;;;;21.37;65.55;97698.03;597850;237;65914;-66
2022/10/13 06:48:55;;;;;;;;;;;;;;;21.39;65.46;97706.61;597903;237;67211;-68
2022/10/13 06:51:23;;;;;;;;;;;;;;;21.42;65.45;97703.45;597851;237;66854;-68
2022/10/13 06:53:50;;;;;;;;;;;;;;;21.43;65.42;97699.70;597843;237;65139;-67
2022/10/13 06:56:20;;;;;;;;;;;;;;;21.45;65.40;97698.39;597841;236;45637;-70
2022/10/13 06:58:47;;;;;;;;;;;;;;;21.46;65.40;97694.64;597624;237;67008;-66
2022/10/13 07:01:15;;;;;;;;;;;;;;;21.49;65.43;97694.13;597433;237;64984;-66
2022/10/13 07:03:42;;;;;;;;;;;;;;;21.52;65.27;97694.68;597523;237;67430;-74
2022/10/13 07:06:10;;;;;;;;;;;;;;;21.53;65.28;97701.66;597433;237;66864;-75
2022/10/13 07:08:37;;;;;;;;;;;;;;;21.55;65.21;97702.98;597600;237;66104;-75
2022/10/13 07:11:08;;;;;;;;;;;;;;;21.56;64.95;97699.27;597937;237;68012;-69
2022/10/13 07:13:35;;;;;;;;;;;;;;;21.56;64.36;97703.81;597862;237;65145;-69
2022/10/13 07:16:04;;;;;;;;;;;;;;;21.58;64.12;97707.84;597896;237;64028;-68
2022/10/13 07:18:31;;;;;;;;;;;;;;;21.59;62.79;97703.30;597937;237;67126;-68
2022/10/13 07:20:59;;;;;;;;;;;;;;;21.63;62.50;97709.72;597873;237;66924;-68
2022/10/13 07:23:29;;;;;;;;;;;;;;;21.65;62.58;97704.93;597681;237;65216;-68
2022/10/13 07:25:57;;;;;;;;;;;;;;;21.68;62.73;97701.73;597895;237;64691;-68
2022/10/13 07:28:25;;;;;;;;;;;;;;;21.69;62.81;97706.84;597871;237;66972;-67
2022/10/13 07:30:52;;;;;;;;;;;;;;;21.72;62.83;97705.52;597911;237;64899;-68
2022/10/13 07:33:20;;;;;;;;;;;;;;;21.74;62.85;97695.34;597873;237;64833;-68
2022/10/13 07:35:47;;;;;;;;;;;;;;;21.75;62.88;97691.63;597694;237;64467;-67
2022/10/13 07:38:15;;;;;;;;;;;;;;;21.77;63.10;97688.67;595233;238;65360;-68
2022/10/13 07:40:43;;;;;;;;;;;;;;;21.77;62.98;97681.47;595179;238;64548;-69
2022/10/13 07:43:11;;;;;;;;;;;;;;;21.80;63.03;97683.63;595101;238;66903;-68
2022/10/13 07:45:38;;;;;;;;;;;;;;;21.82;63.11;97688.70;595233;238;64980;-70
2022/10/13 07:48:06;;;;;;;;;;;;;;;21.82;63.05;97675.33;595231;238;67205;-69
2022/10/13 07:50:33;;;;;;;;;;;;;;;21.84;63.11;97682.02;595175;238;65041;-69
2022/10/13 07:53:01;;;;;;;;;;;;;;;21.85;63.14;97672.95;595232;238;64024;-67
2022/10/13 07:55:28;;;;;;;;;;;;;;;21.86;63.16;97674.55;595146;238;67354;-68
2022/10/13 07:57:56;;;;;;;;;;;;;;;21.87;63.14;97668.13;595159;238;67066;-69
2022/10/13 08:00:23;;;;;;;;;;;;;;;21.89;63.14;97673.23;595229;238;62777;-73
2022/10/13 08:02:51;;;;;;;;;;;;;;;21.90;63.19;97664.13;595222;238;64853;-70
2022/10/13 08:05:18;;;;;;;;;;;;;;;21.90;63.14;97664.92;595166;238;64873;-73
2022/10/13 08:07:46;;;;;;;;;;;;;;;21.92;63.12;97660.13;595246;238;63016;-72
2022/10/13 08:10:14;;;;;;;;;;;;;;;21.93;63.02;97656.40;595155;238;65015;-72
2022/10/13 08:12:41;;;;;;;;;;;;;;;21.94;63.01;97663.35;595165;238;66909;-72
2022/10/13 08:15:10;;;;;;;;;;;;;;;21.94;63.04;97658.00;595111;238;65195;-71
2022/10/13 08:17:37;;;;;;;;;;;;;;;21.96;62.90;97657.72;595159;238;67373;-70
2022/10/13 08:20:05;;;;;;;;;;;;;;;21.96;62.83;97652.37;595129;238;66972;-69
2022/10/13 08:22:33;;;;;;;;;;;;;;;21.96;62.89;97652.37;595218;238;65255;-69
2022/10/13 08:25:01;;;;;;;;;;;;;;;21.98;62.99;97658.27;594807;238;67258;-68
2022/10/13 08:27:29;;;;;;;;;;;;;;;21.99;63.10;97649.20;594688;238;64991;-71
2022/10/13 08:29:57;;;;;;;;;;;;;;;22.00;63.02;97652.67;595019;238;62693;-68
2022/10/13 08:32:24;;;;;;;;;;;;;;;22.02;63.05;97645.19;595156;238;67380;-66
2022/10/13 08:34:52;;;;;;;;;;;;;;;22.02;63.23;97645.98;595224;238;66978;-68
2022/10/13 08:37:20;;;;;;;;;;;;;;;22.03;63.21;97641.44;596958;237;63215;-67
2022/10/13 08:39:48;;;;;;;;;;;;;;;22.03;62.89;97644.91;597876;237;64959;-67
2022/10/13 08:42:17;;;;;;;;;;;;;;;22.03;62.88;97644.91;597920;237;64952;-65
2022/10/13 08:44:46;;;;;;;;;;;;;;;22.03;62.51;97644.11;597937;237;65097;-66
2022/10/13 08:47:24;;;;;;;;;;;;;;;22.04;62.78;97640.36;597833;237;67223;-72
2022/10/13 08:49:52;;;;;;;;;;;;;;;22.03;62.48;97644.11;597865;237;67166;-71
2022/10/13 08:52:21;;;;;;;;;;;;;;;22.04;62.37;97651.06;597909;237;65066;-70
2022/10/13 08:54:49;;;;;;;;;;;;;;;22.04;62.43;97651.06;597851;237;68059;-70
2022/10/13 08:57:17;;;;;;;;;;;;;;;22.05;62.38;97652.70;597918;237;64464;-70
2022/10/13 08:59:44;;;;;;;;;;;;;;;22.05;62.26;97647.34;597890;237;63009;-71
2022/10/13 09:02:13;;;;;;;;;;;;;;;22.05;62.33;97652.70;597910;237;65041;-69
2022/10/13 09:04:42;;;;;;;;;;;;;;;22.05;62.33;97650.02;597912;237;67406;-69
2022/10/13 09:07:11;;;;;;;;;;;;;;;22.05;62.22;97645.46;597883;237;65134;-69
2022/10/13 09:09:39;;;;;;;;;;;;;;;22.04;62.21;97649.19;597902;237;67219;-70
2022/10/13 09:12:06;;;;;;;;;;;;;;;22.06;62.23;97643.59;597936;237;66938;-64
2022/10/13 09:14:35;;;;;;;;;;;;;;;22.06;62.18;97632.88;597891;237;65034;-65
2022/10/13 09:17:16;;;;;;;;;;;;;;;22.07;62.41;97632.63;597862;237;65093;-66
2022/10/13 09:19:45;;;;;;;;;;;;;;;22.08;62.67;97633.42;597967;237;67075;-67
2022/10/13 09:22:26;;;;;;;;;;;;;;;22.08;62.72;97631.55;597927;237;62974;-70
2022/10/13 09:25:10;;;;;;;;;;;;;;;22.08;62.76;97638.78;597958;237;64720;-68
2022/10/13 09:27:42;;;;;;;;;;;;;;;22.08;62.84;97623.52;597935;237;67913;-67
2022/10/13 09:30:26;;;;;;;;;;;;;;;22.09;63.04;97624.32;597871;237;65087;-70
2022/10/13 09:32:59;;;;;;;;;;;;;;;22.09;63.06;97622.44;597967;237;68016;-67
2022/10/13 09:35:27;;;;;;;;;;;;;;;22.10;63.21;97615.24;592388;237;64411;-67
2022/10/13 09:38:03;;;;;;;;;;;;;;;22.11;63.40;97624.87;597771;237;65818;-68
2022/10/13 09:40:31;;;;;;;;;;;;;;;22.10;63.23;97618.72;597972;237;67308;-68
2022/10/13 09:42:59;;;;;;;;;;;;;;;22.10;63.32;97613.36;597892;237;67156;-67
2022/10/13 09:45:29;;;;;;;;;;;;;;;22.10;63.47;97616.04;597919;237;65071;-67
2022/10/13 09:48:01;;;;;;;;;;;;;;;22.11;63.41;97614.16;598009;237;66946;-67
2022/10/13 09:50:33;;;;;;;;;;;;;;;22.10;63.77;97599.98;597821;237;63295;-67
2022/10/13 09:53:17;;;;;;;;;;;;;;;22.11;63.60;97609.61;597908;237;62922;-65
2022/10/13 09:55:48;;;;;;;;;;;;;;;22.11;63.72;97601.58;597742;237;64699;-67
2022/10/13 09:58:19;;;;;;;;;;;;;;;22.12;63.62;97591.67;597822;237;44035;-67
2022/10/13 10:00:48;;;;;;;;;;;;;;;22.12;63.58;97591.67;597895;237;63852;-67
2022/10/13 10:03:17;;;;;;;;;;;;;;;22.12;63.48;97597.82;597918;237;66626;-65
2022/10/13 10:05:47;;;;;;;;;;;;;;;22.13;63.59;97590.63;597913;237;67266;-66
2022/10/13 10:08:16;;;;;;;;;;;;;;;22.14;63.66;97592.22;597939;237;65106;-66
2022/10/13 10:10:46;;;;;;;;;;;;;;;22.13;63.59;97586.06;597718;237;66959;-68
2022/10/13 10:13:14;;;;;;;;;;;;;;;22.12;63.98;97584.44;597829;237;64713;-67
2022/10/13 10:15:52;;;;;;;;;;;;;;;22.12;63.50;97589.79;597947;237;62769;-68
2022/10/13 10:18:21;;;;;;;;;;;;;;;22.13;63.40;97582.59;597868;237;67242;-68
2022/10/13 10:20:54;;;;;;;;;;;;;;;22.13;63.75;97577.23;597724;237;65986;-67
2022/10/13 10:23:35;;;;;;;;;;;;;;;22.11;63.21;97566.78;597909;237;62729;-66
2022/10/13 10:26:15;;;;;;;;;;;;;;;22.11;63.46;97565.98;589990;237;68410;-67
2022/10/13 10:29:00;;;;;;;;;;;;;;;22.12;63.67;97559.55;597931;237;64951;-67
2022/10/13 10:31:46;;;;;;;;;;;;;;;22.11;63.26;97556.07;597662;237;65287;-67
2022/10/13 10:34:27;;;;;;;;;;;;;;;22.12;63.14;97554.20;597862;237;67787;-67
2022/10/13 10:37:05;;;;;;;;;;;;;;;22.11;63.05;97553.39;596527;237;67026;-67
2022/10/13 10:39:34;;;;;;;;;;;;;;;22.11;63.07;97552.59;594908;238;65272;-67
2022/10/13 10:42:03;;;;;;;;;;;;;;;22.11;63.15;97545.36;582787;238;66998;-67
2022/10/13 10:44:38;;;;;;;;;;;;;;;22.12;63.12;97543.48;595221;238;62652;-67
2022/10/13 10:47:07;;;;;;;;;;;;;;;22.11;63.00;97531.18;595148;238;65294;-67
2022/10/13 10:49:38;;;;;;;;;;;;;;;22.11;63.15;97533.86;595135;238;67536;-67
2022/10/13 10:52:09;;;;;;;;;;;;;;;22.11;63.24;97531.18;595257;238;67067;-67
2022/10/13 10:54:40;;;;;;;;;;;;;;;22.11;63.16;97523.16;594943;238;42372;-67
2022/10/13 10:57:18;;;;;;;;;;;;;;;22.10;63.14;97525.03;595161;238;65021;-67
2022/10/13 10:59:47;;;;;;;;;;;;;;;22.10;63.10;97525.03;595081;238;67176;-67
2022/10/13 11:02:31;;;;;;;;;;;;;;;22.13;63.05;97526.38;594693;236;64916;-69
2022/10/13 11:04:59;;;;;;;;;;;;;;;22.13;63.05;97521.02;595478;235;66835;-68
2022/10/13 11:07:29;;;;;;;;;;;;;;;22.13;63.25;97518.34;595236;238;66894;-68
2022/10/13 11:09:58;;;;;;;;;;;;;;;22.14;64.01;97514.59;595452;238;62769;-69
2022/10/13 11:12:29;;;;;;;;;;;;;;;22.13;63.59;97512.98;594776;238;64630;-68
2022/10/13 11:14:58;;;;;;;;;;;;;;;22.11;63.86;97510.56;594644;237;66708;-68
2022/10/13 11:17:29;;;;;;;;;;;;;;;22.12;63.49;97514.05;595420;238;62751;-67
2022/10/13 11:19:57;;;;;;;;;;;;;;;22.12;63.83;97506.81;595387;238;66893;-66
2022/10/13 11:22:26;;;;;;;;;;;;;;;22.10;62.98;97508.97;595423;238;64473;-68
2022/10/13 11:24:58;;;;;;;;;;;;;;;22.10;62.34;97508.17;595529;238;62763;-68
2022/10/13 11:27:28;;;;;;;;;;;;;;;22.11;62.13;97494.50;595486;238;66639;-69
2022/10/13 11:29:57;;;;;;;;;;;;;;;22.11;62.24;97488.36;595516;238;66660;-68
2022/10/13 11:35:11;;;;;;;;;;;;;;;22.10;62.11;97481.41;595496;238;66737;-67
2022/10/13 11:37:39;;;;;;;;;;;;;;;22.10;62.30;97476.05;599638;235;68045;-66
2022/10/13 11:40:21;;;;;;;;;;;;;;;22.10;62.31;97476.05;601107;235;62742;-67
2022/10/13 11:42:50;;;;;;;;;;;;;;;22.09;62.48;97479.78;601211;236;64460;-67
2022/10/13 11:45:28;;;;;;;;;;;;;;;22.09;62.38;97475.23;600853;235;66878;-66
2022/10/13 11:47:57;;;;;;;;;;;;;;;22.09;62.23;97474.42;601253;236;62755;-66
2022/10/13 11:50:26;;;;;;;;;;;;;;;22.10;61.95;97471.50;600984;235;66768;-67
2022/10/13 11:53:15;;;;;;;;;;;;;;;22.08;62.16;97468.28;601045;236;66936;-66
2022/10/13 11:55:50;;;;;;;;;;;;;;;22.09;61.87;97466.40;601184;236;63163;-67
2022/10/13 11:58:19;;;;;;;;;;;;;;;22.07;61.63;97450.63;601106;236;66340;-68
2022/10/13 12:00:54;;;;;;;;;;;;;;;22.07;61.85;97453.30;599276;236;67202;-68
2022/10/13 12:03:23;;;;;;;;;;;;;;;22.08;61.20;97454.09;597921;236;65073;-66
2022/10/13 12:05:51;;;;;;;;;;;;;;;22.08;61.55;97456.77;598903;236;67063;-68
2022/10/13 12:08:20;;;;;;;;;;;;;;;22.07;61.67;97457.83;595458;236;66834;-67
2022/10/13 12:10:49;;;;;;;;;;;;;;;22.07;61.65;97449.80;594623;238;63004;-66
2022/10/13 12:13:24;;;;;;;;;;;;;;;22.07;61.45;97441.77;594554;237;64723;-65
2022/10/13 12:15:59;;;;;;;;;;;;;;;22.07;61.75;97441.77;594694;238;64652;-67
2022/10/13 12:18:32;;;;;;;;;;;;;;;22.05;61.23;97442.05;591203;238;65052;-70
2022/10/13 12:20:59;;;;;;;;;;;;;;;22.08;61.79;97435.36;594576;237;66781;-66
2022/10/13 12:23:27;;;;;;;;;;;;;;;22.07;61.23;97444.44;594678;238;64633;-66
2022/10/13 12:26:00;;;;;;;;;;;;;;;22.06;61.83;97438.30;594582;238;63000;-66
2022/10/13 12:28:29;;;;;;;;;;;;;;;22.05;61.42;97442.05;594532;236;67772;-73
2022/10/13 12:30:58;;;;;;;;;;;;;;;22.04;61.24;97439.63;594252;238;66784;-74
2022/10/13 12:33:30;;;;;;;;;;;;;;;22.05;61.40;97443.93;594253;238;63084;-73
2022/10/13 12:36:08;;;;;;;;;;;;;;;22.04;61.08;97447.66;593631;238;64667;-73
2022/10/13 12:38:35;;;;;;;;;;;;;;;22.03;61.06;97443.38;586594;241;66904;-75
2022/10/13 12:41:03;;;;;;;;;;;;;;;22.03;60.48;97443.38;588840;241;63371;-75
2022/10/13 12:43:32;;;;;;;;;;;;;;;22.03;60.71;97438.03;588812;241;67339;-74
2022/10/13 12:45:59;;;;;;;;;;;;;;;22.03;61.94;97443.38;588914;241;66620;-74
2022/10/13 12:48:31;;;;;;;;;;;;;;;22.01;61.07;97440.16;588820;241;63063;-74
2022/10/13 12:51:18;;;;;;;;;;;;;;;22.01;61.22;97442.84;588876;241;64735;-73
2022/10/13 12:53:46;;;;;;;;;;;;;;;22.01;61.39;97442.84;588865;241;67054;-75
2022/10/13 12:56:19;;;;;;;;;;;;;;;22.01;61.56;97445.52;588807;241;62665;-75
2022/10/13 12:58:47;;;;;;;;;;;;;;;22.00;61.38;97431.34;588759;241;64567;-73
2022/10/13 13:01:16;;;;;;;;;;;;;;;22.00;61.37;97428.66;588929;241;64740;-74
2022/10/13 13:03:44;;;;;;;;;;;;;;;22.00;61.49;97430.54;588863;241;64933;-74